Waddell, Arizona
Current Conditions -  °F | °C
As of 10:18 AM on Thursday 27 Nov 2014 (Local Time) from KLUF Reporting Station
Haze Haze  
Wind Chill: 63°   Ceiling: Unl
Heat Index: 63°   Visibility: 4mi
Dew Point: 28°   Wind: 3mph
Humidity: 27%   Direction: 40°NE
Pressure: 30.22"   Gusts: NA
Location:  33.57°N, 112.43°W
Report Text: KLUF 271718Z AUTO 04003KT 4SM HZ CLR 17/M02 A3022 RMK AO2 $
Loading
Personal Weather Stations






























Interactive Weather Map New forecast layout! Learn more

10-Day Weather Forecast

Advertisements
Track Severe Weather on mobile